Terminal Aerodrome Forecast
Issued by NWS

Home | Current Version | Previous Version | Text Only | Print | Product List | Glossary On
Versions: 1 2 3 4 5 6 7 8 9 10 11 12 13 14 15 16 17 18 19 20 21 22 23
000
FTUS43 KAPX 021720
TAFPLN
TAF
KPLN 021720Z 0218/0318 31007KT P6SM BKN040
     FM022000 31007KT P6SM SCT040 SCT200
     FM030000 VRB03KT P6SM BKN120
     FM030300 00000KT 2SM BR BKN120
     FM031000 00000KT 1/2SM FG VV014
     FM031300 08005KT P6SM BKN120=

USA.gov is the U.S. government's official web portal to all federal, state and local government web resources and services.